sensor_id;sensor_type;location;lat;lon;timestamp;P1;durP1;ratioP1;P2;durP2;ratioP2
18100;SDS011;9177;49.156;8.142;2023-09-12T00:00:08;7.63;;;6.97;;
18100;SDS011;9177;49.156;8.142;2023-09-12T00:02:37;7.50;;;6.78;;
18100;SDS011;9177;49.156;8.142;2023-09-12T00:05:04;7.50;;;6.80;;
18100;SDS011;9177;49.156;8.142;2023-09-12T00:07:31;8.05;;;6.20;;
18100;SDS011;9177;49.156;8.142;2023-09-12T00:09:58;8.05;;;7.10;;
18100;SDS011;9177;49.156;8.142;2023-09-12T00:12:25;7.32;;;6.60;;
18100;SDS011;9177;49.156;8.142;2023-09-12T00:14:53;7.32;;;6.63;;
18100;SDS011;9177;49.156;8.142;2023-09-12T00:17:20;7.65;;;6.85;;
18100;SDS011;9177;49.156;8.142;2023-09-12T00:19:47;6.93;;;6.32;;
18100;SDS011;9177;49.156;8.142;2023-09-12T00:22:14;7.88;;;7.10;;
18100;SDS011;9177;49.156;8.142;2023-09-12T00:24:40;6.78;;;6.18;;
18100;SDS011;9177;49.156;8.142;2023-09-12T00:27:07;7.15;;;6.55;;
18100;SDS011;9177;49.156;8.142;2023-09-12T00:29:34;6.97;;;6.38;;
18100;SDS011;9177;49.156;8.142;2023-09-12T00:32:03;7.38;;;6.68;;
18100;SDS011;9177;49.156;8.142;2023-09-12T00:34:30;7.25;;;6.55;;
18100;SDS011;9177;49.156;8.142;2023-09-12T00:36:57;7.20;;;6.50;;
18100;SDS011;9177;49.156;8.142;2023-09-12T00:39:24;7.13;;;6.43;;
18100;SDS011;9177;49.156;8.142;2023-09-12T00:41:51;7.78;;;7.07;;
18100;SDS011;9177;49.156;8.142;2023-09-12T00:44:17;6.72;;;6.13;;
18100;SDS011;9177;49.156;8.142;2023-09-12T00:46:44;7.00;;;6.30;;
18100;SDS011;9177;49.156;8.142;2023-09-12T00:49:15;6.88;;;6.30;;
18100;SDS011;9177;49.156;8.142;2023-09-12T00:51:43;6.90;;;6.25;;
18100;SDS011;9177;49.156;8.142;2023-09-12T00:54:11;7.03;;;6.32;;
18100;SDS011;9177;49.156;8.142;2023-09-12T00:56:38;6.70;;;6.10;;
18100;SDS011;9177;49.156;8.142;2023-09-12T00:59:05;6.50;;;5.90;;
18100;SDS011;9177;49.156;8.142;2023-09-12T01:01:32;6.50;;;5.88;;
18100;SDS011;9177;49.156;8.142;2023-09-12T01:04:00;6.03;;;5.53;;
18100;SDS011;9177;49.156;8.142;2023-09-12T01:06:29;6.78;;;6.15;;
18100;SDS011;9177;49.156;8.142;2023-09-12T01:09:00;6.80;;;6.07;;
18100;SDS011;9177;49.156;8.142;2023-09-12T01:11:27;6.10;;;5.60;;
18100;SDS011;9177;49.156;8.142;2023-09-12T01:13:57;6.15;;;5.65;;
18100;SDS011;9177;49.156;8.142;2023-09-12T01:16:24;7.10;;;6.50;;
18100;SDS011;9177;49.156;8.142;2023-09-12T01:18:51;6.50;;;5.82;;
18100;SDS011;9177;49.156;8.142;2023-09-12T01:27:51;6.40;;;5.80;;
18100;SDS011;9177;49.156;8.142;2023-09-12T01:30:21;5.80;;;5.30;;
18100;SDS011;9177;49.156;8.142;2023-09-12T01:32:49;6.03;;;5.32;;
18100;SDS011;9177;49.156;8.142;2023-09-12T01:35:16;6.20;;;5.60;;
18100;SDS011;9177;49.156;8.142;2023-09-12T01:37:43;6.03;;;5.55;;
18100;SDS011;9177;49.156;8.142;2023-09-12T01:40:10;6.90;;;6.30;;
18100;SDS011;9177;49.156;8.142;2023-09-12T01:42:40;6.45;;;5.57;;
18100;SDS011;9177;49.156;8.142;2023-09-12T01:45:12;5.80;;;5.30;;
18100;SDS011;9177;49.156;8.142;2023-09-12T01:47:41;6.78;;;6.10;;
18100;SDS011;9177;49.156;8.142;2023-09-12T01:50:09;6.47;;;5.88;;
18100;SDS011;9177;49.156;8.142;2023-09-12T01:52:38;5.60;;;5.20;;
18100;SDS011;9177;49.156;8.142;2023-09-12T01:55:06;5.57;;;5.07;;
18100;SDS011;9177;49.156;8.142;2023-09-12T01:57:35;6.30;;;5.70;;
18100;SDS011;9177;49.156;8.142;2023-09-12T02:00:03;5.78;;;5.38;;
18100;SDS011;9177;49.156;8.142;2023-09-12T02:02:32;5.68;;;5.18;;
18100;SDS011;9177;49.156;8.142;2023-09-12T02:05:09;5.75;;;5.05;;
18100;SDS011;9177;49.156;8.142;2023-09-12T02:07:41;5.80;;;5.30;;
18100;SDS011;9177;49.156;8.142;2023-09-12T02:10:08;5.80;;;5.32;;
18100;SDS011;9177;49.156;8.142;2023-09-12T02:12:36;5.70;;;5.20;;
18100;SDS011;9177;49.156;8.142;2023-09-12T02:15:06;5.65;;;5.15;;
18100;SDS011;9177;49.156;8.142;2023-09-12T02:17:35;5.75;;;5.25;;
18100;SDS011;9177;49.156;8.142;2023-09-12T02:20:04;5.35;;;4.95;;
18100;SDS011;9177;49.156;8.142;2023-09-12T02:22:32;6.00;;;5.40;;
18100;SDS011;9177;49.156;8.142;2023-09-12T02:24:59;5.80;;;5.30;;
18100;SDS011;9177;49.156;8.142;2023-09-12T02:27:25;6.00;;;5.50;;
18100;SDS011;9177;49.156;8.142;2023-09-12T02:29:52;5.95;;;5.45;;
18100;SDS011;9177;49.156;8.142;2023-09-12T02:32:20;5.70;;;5.20;;
18100;SDS011;9177;49.156;8.142;2023-09-12T02:34:48;6.22;;;5.63;;
18100;SDS011;9177;49.156;8.142;2023-09-12T02:37:15;5.43;;;4.93;;
18100;SDS011;9177;49.156;8.142;2023-09-12T02:39:42;5.55;;;5.05;;
18100;SDS011;9177;49.156;8.142;2023-09-12T02:42:09;5.78;;;5.18;;
18100;SDS011;9177;49.156;8.142;2023-09-12T02:44:36;5.85;;;5.35;;
18100;SDS011;9177;49.156;8.142;2023-09-12T02:47:03;5.35;;;4.85;;
18100;SDS011;9177;49.156;8.142;2023-09-12T02:49:30;5.55;;;5.05;;
18100;SDS011;9177;49.156;8.142;2023-09-12T02:51:58;5.57;;;5.18;;
18100;SDS011;9177;49.156;8.142;2023-09-12T02:54:25;5.90;;;5.30;;
18100;SDS011;9177;49.156;8.142;2023-09-12T02:56:52;5.68;;;5.28;;
18100;SDS011;9177;49.156;8.142;2023-09-12T02:59:19;5.50;;;5.00;;
18100;SDS011;9177;49.156;8.142;2023-09-12T03:01:45;5.30;;;4.90;;
18100;SDS011;9177;49.156;8.142;2023-09-12T03:04:12;5.57;;;5.07;;
18100;SDS011;9177;49.156;8.142;2023-09-12T03:06:39;5.35;;;4.93;;
18100;SDS011;9177;49.156;8.142;2023-09-12T03:09:07;5.38;;;4.97;;
18100;SDS011;9177;49.156;8.142;2023-09-12T03:11:36;5.30;;;4.80;;
18100;SDS011;9177;49.156;8.142;2023-09-12T03:14:03;5.80;;;5.30;;
18100;SDS011;9177;49.156;8.142;2023-09-12T03:16:29;5.88;;;5.30;;
18100;SDS011;9177;49.156;8.142;2023-09-12T03:18:59;5.68;;;5.20;;
18100;SDS011;9177;49.156;8.142;2023-09-12T03:21:27;5.63;;;5.13;;
18100;SDS011;9177;49.156;8.142;2023-09-12T03:23:54;4.95;;;4.40;;
18100;SDS011;9177;49.156;8.142;2023-09-12T03:26:22;5.63;;;5.13;;
18100;SDS011;9177;49.156;8.142;2023-09-12T03:28:49;5.07;;;4.63;;
18100;SDS011;9177;49.156;8.142;2023-09-12T03:31:16;5.70;;;5.20;;
18100;SDS011;9177;49.156;8.142;2023-09-12T03:33:44;5.70;;;5.20;;
18100;SDS011;9177;49.156;8.142;2023-09-12T03:36:14;5.70;;;5.20;;
18100;SDS011;9177;49.156;8.142;2023-09-12T03:38:44;5.05;;;4.65;;
18100;SDS011;9177;49.156;8.142;2023-09-12T03:41:11;5.53;;;5.03;;
18100;SDS011;9177;49.156;8.142;2023-09-12T03:43:39;5.03;;;4.63;;
18100;SDS011;9177;49.156;8.142;2023-09-12T03:46:06;5.32;;;4.88;;
18100;SDS011;9177;49.156;8.142;2023-09-12T03:48:33;4.85;;;4.45;;
18100;SDS011;9177;49.156;8.142;2023-09-12T03:51:01;6.50;;;4.85;;
18100;SDS011;9177;49.156;8.142;2023-09-12T03:53:29;5.25;;;4.75;;
18100;SDS011;9177;49.156;8.142;2023-09-12T03:55:57;4.95;;;4.55;;
18100;SDS011;9177;49.156;8.142;2023-09-12T03:58:24;5.18;;;4.78;;
18100;SDS011;9177;49.156;8.142;2023-09-12T04:00:52;5.05;;;4.65;;
18100;SDS011;9177;49.156;8.142;2023-09-12T04:03:19;5.15;;;4.75;;
18100;SDS011;9177;49.156;8.142;2023-09-12T04:05:57;5.70;;;4.60;;
18100;SDS011;9177;49.156;8.142;2023-09-12T04:08:24;5.25;;;4.75;;
18100;SDS011;9177;49.156;8.142;2023-09-12T04:10:51;5.40;;;4.90;;
18100;SDS011;9177;49.156;8.142;2023-09-12T04:13:17;4.78;;;4.38;;
18100;SDS011;9177;49.156;8.142;2023-09-12T04:15:44;5.05;;;4.55;;
18100;SDS011;9177;49.156;8.142;2023-09-12T04:18:13;5.38;;;4.88;;
18100;SDS011;9177;49.156;8.142;2023-09-12T04:20:40;4.70;;;4.35;;
18100;SDS011;9177;49.156;8.142;2023-09-12T04:23:07;4.72;;;4.32;;
18100;SDS011;9177;49.156;8.142;2023-09-12T04:25:33;5.00;;;4.60;;
18100;SDS011;9177;49.156;8.142;2023-09-12T04:28:00;4.32;;;4.03;;
18100;SDS011;9177;49.156;8.142;2023-09-12T04:30:27;4.85;;;4.45;;
18100;SDS011;9177;49.156;8.142;2023-09-12T04:32:54;5.05;;;4.60;;
18100;SDS011;9177;49.156;8.142;2023-09-12T04:35:22;4.72;;;4.40;;
18100;SDS011;9177;49.156;8.142;2023-09-12T04:37:50;4.40;;;4.10;;
18100;SDS011;9177;49.156;8.142;2023-09-12T04:40:17;4.70;;;4.40;;
18100;SDS011;9177;49.156;8.142;2023-09-12T04:42:43;4.93;;;4.47;;
18100;SDS011;9177;49.156;8.142;2023-09-12T04:45:11;5.60;;;5.20;;
18100;SDS011;9177;49.156;8.142;2023-09-12T04:47:37;5.07;;;4.68;;
18100;SDS011;9177;49.156;8.142;2023-09-12T04:50:05;5.10;;;4.70;;
18100;SDS011;9177;49.156;8.142;2023-09-12T04:52:34;4.53;;;4.22;;
18100;SDS011;9177;49.156;8.142;2023-09-12T04:55:00;4.70;;;4.30;;
18100;SDS011;9177;49.156;8.142;2023-09-12T04:57:28;5.22;;;4.72;;
18100;SDS011;9177;49.156;8.142;2023-09-12T04:59:56;5.00;;;4.60;;
18100;SDS011;9177;49.156;8.142;2023-09-12T05:02:23;4.43;;;4.13;;
18100;SDS011;9177;49.156;8.142;2023-09-12T05:04:50;4.70;;;4.30;;
18100;SDS011;9177;49.156;8.142;2023-09-12T05:07:17;5.15;;;4.65;;
18100;SDS011;9177;49.156;8.142;2023-09-12T05:09:45;5.40;;;4.93;;
18100;SDS011;9177;49.156;8.142;2023-09-12T05:12:12;5.32;;;4.82;;
18100;SDS011;9177;49.156;8.142;2023-09-12T05:14:39;5.10;;;4.70;;
18100;SDS011;9177;49.156;8.142;2023-09-12T05:17:06;5.13;;;4.72;;
18100;SDS011;9177;49.156;8.142;2023-09-12T05:19:32;5.00;;;4.60;;
18100;SDS011;9177;49.156;8.142;2023-09-12T05:21:59;4.80;;;4.40;;
18100;SDS011;9177;49.156;8.142;2023-09-12T05:24:26;4.82;;;4.43;;
18100;SDS011;9177;49.156;8.142;2023-09-12T05:26:54;4.50;;;4.13;;
18100;SDS011;9177;49.156;8.142;2023-09-12T05:29:21;5.40;;;4.90;;
18100;SDS011;9177;49.156;8.142;2023-09-12T05:31:48;6.70;;;5.65;;
18100;SDS011;9177;49.156;8.142;2023-09-12T05:34:15;6.00;;;4.60;;
18100;SDS011;9177;49.156;8.142;2023-09-12T05:36:42;8.90;;;6.18;;
18100;SDS011;9177;49.156;8.142;2023-09-12T05:39:09;7.47;;;5.93;;
18100;SDS011;9177;49.156;8.142;2023-09-12T05:41:39;9.88;;;6.20;;
18100;SDS011;9177;49.156;8.142;2023-09-12T05:44:07;10.75;;;6.32;;
18100;SDS011;9177;49.156;8.142;2023-09-12T05:46:35;9.18;;;6.30;;
18100;SDS011;9177;49.156;8.142;2023-09-12T05:49:02;10.23;;;6.25;;
18100;SDS011;9177;49.156;8.142;2023-09-12T05:51:33;12.25;;;6.53;;
18100;SDS011;9177;49.156;8.142;2023-09-12T05:54:05;13.15;;;8.90;;
18100;SDS011;9177;49.156;8.142;2023-09-12T05:56:33;12.02;;;10.48;;
18100;SDS011;9177;49.156;8.142;2023-09-12T05:59:00;17.45;;;15.20;;
18100;SDS011;9177;49.156;8.142;2023-09-12T06:01:35;21.45;;;19.20;;
18100;SDS011;9177;49.156;8.142;2023-09-12T06:04:02;18.63;;;16.05;;
18100;SDS011;9177;49.156;8.142;2023-09-12T06:06:30;13.82;;;12.40;;
18100;SDS011;9177;49.156;8.142;2023-09-12T06:08:57;15.10;;;9.73;;
18100;SDS011;9177;49.156;8.142;2023-09-12T06:16:19;10.88;;;8.68;;
18100;SDS011;9177;49.156;8.142;2023-09-12T06:18:46;12.95;;;11.00;;
18100;SDS011;9177;49.156;8.142;2023-09-12T06:21:14;16.00;;;12.50;;
18100;SDS011;9177;49.156;8.142;2023-09-12T06:23:41;14.98;;;10.80;;
18100;SDS011;9177;49.156;8.142;2023-09-12T06:26:08;19.02;;;10.20;;
18100;SDS011;9177;49.156;8.142;2023-09-12T06:28:35;15.25;;;9.30;;
18100;SDS011;9177;49.156;8.142;2023-09-12T06:31:07;10.60;;;8.15;;
18100;SDS011;9177;49.156;8.142;2023-09-12T06:33:37;14.05;;;8.32;;
18100;SDS011;9177;49.156;8.142;2023-09-12T06:38:32;13.65;;;8.43;;
18100;SDS011;9177;49.156;8.142;2023-09-12T06:41:00;10.82;;;7.15;;
18100;SDS011;9177;49.156;8.142;2023-09-12T06:43:29;11.88;;;6.50;;
18100;SDS011;9177;49.156;8.142;2023-09-12T06:45:56;10.32;;;7.20;;
18100;SDS011;9177;49.156;8.142;2023-09-12T06:48:23;11.90;;;7.38;;
18100;SDS011;9177;49.156;8.142;2023-09-12T06:50:53;13.00;;;10.90;;
18100;SDS011;9177;49.156;8.142;2023-09-12T06:53:21;17.20;;;10.63;;
18100;SDS011;9177;49.156;8.142;2023-09-12T06:55:47;14.73;;;9.88;;
18100;SDS011;9177;49.156;8.142;2023-09-12T06:58:14;16.92;;;10.93;;
18100;SDS011;9177;49.156;8.142;2023-09-12T07:00:42;17.30;;;12.77;;
18100;SDS011;9177;49.156;8.142;2023-09-12T07:03:09;13.60;;;10.88;;
18100;SDS011;9177;49.156;8.142;2023-09-12T07:05:36;13.80;;;9.60;;
18100;SDS011;9177;49.156;8.142;2023-09-12T07:08:06;16.02;;;11.02;;
18100;SDS011;9177;49.156;8.142;2023-09-12T07:10:34;22.30;;;13.93;;
18100;SDS011;9177;49.156;8.142;2023-09-12T07:13:01;18.13;;;14.00;;
18100;SDS011;9177;49.156;8.142;2023-09-12T07:15:29;14.27;;;10.90;;
18100;SDS011;9177;49.156;8.142;2023-09-12T07:17:56;19.33;;;11.15;;
18100;SDS011;9177;49.156;8.142;2023-09-12T07:20:24;17.27;;;9.55;;
18100;SDS011;9177;49.156;8.142;2023-09-12T07:22:51;12.70;;;8.38;;
18100;SDS011;9177;49.156;8.142;2023-09-12T07:25:20;9.55;;;7.97;;
18100;SDS011;9177;49.156;8.142;2023-09-12T07:27:49;9.75;;;7.70;;
18100;SDS011;9177;49.156;8.142;2023-09-12T07:30:16;12.75;;;8.48;;
18100;SDS011;9177;49.156;8.142;2023-09-12T07:32:43;10.90;;;9.63;;
18100;SDS011;9177;49.156;8.142;2023-09-12T07:35:10;11.30;;;10.02;;
18100;SDS011;9177;49.156;8.142;2023-09-12T07:37:37;19.98;;;9.82;;
18100;SDS011;9177;49.156;8.142;2023-09-12T07:40:04;13.63;;;8.20;;
18100;SDS011;9177;49.156;8.142;2023-09-12T07:42:36;10.88;;;8.05;;
18100;SDS011;9177;49.156;8.142;2023-09-12T07:45:03;12.35;;;8.10;;
18100;SDS011;9177;49.156;8.142;2023-09-12T07:47:31;14.63;;;7.80;;
18100;SDS011;9177;49.156;8.142;2023-09-12T07:49:58;9.43;;;7.28;;
18100;SDS011;9177;49.156;8.142;2023-09-12T07:52:25;12.90;;;7.88;;
18100;SDS011;9177;49.156;8.142;2023-09-12T07:54:52;11.52;;;7.85;;
18100;SDS011;9177;49.156;8.142;2023-09-12T07:57:25;12.07;;;7.22;;
18100;SDS011;9177;49.156;8.142;2023-09-12T07:59:53;9.63;;;7.07;;
18100;SDS011;9177;49.156;8.142;2023-09-12T08:02:20;18.73;;;7.47;;
18100;SDS011;9177;49.156;8.142;2023-09-12T08:04:48;13.93;;;7.35;;
18100;SDS011;9177;49.156;8.142;2023-09-12T08:07:15;15.38;;;7.55;;
18100;SDS011;9177;49.156;8.142;2023-09-12T08:09:49;13.63;;;7.10;;
18100;SDS011;9177;49.156;8.142;2023-09-12T08:12:17;10.77;;;6.93;;
18100;SDS011;9177;49.156;8.142;2023-09-12T08:14:46;12.30;;;6.85;;
18100;SDS011;9177;49.156;8.142;2023-09-12T08:17:14;13.95;;;10.27;;
18100;SDS011;9177;49.156;8.142;2023-09-12T08:19:41;16.15;;;10.82;;
18100;SDS011;9177;49.156;8.142;2023-09-12T08:22:09;15.27;;;11.95;;
18100;SDS011;9177;49.156;8.142;2023-09-12T08:24:38;16.48;;;9.85;;
18100;SDS011;9177;49.156;8.142;2023-09-12T08:27:05;15.40;;;9.77;;
18100;SDS011;9177;49.156;8.142;2023-09-12T08:29:34;13.05;;;9.10;;
18100;SDS011;9177;49.156;8.142;2023-09-12T08:32:01;10.82;;;8.60;;
18100;SDS011;9177;49.156;8.142;2023-09-12T08:34:29;13.15;;;7.70;;
18100;SDS011;9177;49.156;8.142;2023-09-12T08:36:58;11.48;;;7.35;;
18100;SDS011;9177;49.156;8.142;2023-09-12T08:39:26;12.30;;;7.38;;
18100;SDS011;9177;49.156;8.142;2023-09-12T08:41:53;10.10;;;6.78;;
18100;SDS011;9177;49.156;8.142;2023-09-12T08:44:21;13.57;;;6.78;;
18100;SDS011;9177;49.156;8.142;2023-09-12T08:46:48;10.88;;;6.72;;
18100;SDS011;9177;49.156;8.142;2023-09-12T08:49:14;9.63;;;6.70;;
18100;SDS011;9177;49.156;8.142;2023-09-12T08:51:43;11.52;;;7.07;;
18100;SDS011;9177;49.156;8.142;2023-09-12T08:54:10;13.07;;;7.43;;
18100;SDS011;9177;49.156;8.142;2023-09-12T08:56:39;8.40;;;6.82;;
18100;SDS011;9177;49.156;8.142;2023-09-12T08:59:07;11.25;;;6.60;;
18100;SDS011;9177;49.156;8.142;2023-09-12T09:01:35;10.82;;;7.07;;
18100;SDS011;9177;49.156;8.142;2023-09-12T09:04:03;8.68;;;6.95;;
18100;SDS011;9177;49.156;8.142;2023-09-12T09:06:31;11.10;;;6.85;;
18100;SDS011;9177;49.156;8.142;2023-09-12T09:09:03;9.02;;;6.75;;
18100;SDS011;9177;49.156;8.142;2023-09-12T09:11:33;11.00;;;7.00;;
18100;SDS011;9177;49.156;8.142;2023-09-12T09:14:01;10.93;;;6.90;;
18100;SDS011;9177;49.156;8.142;2023-09-12T09:16:29;9.68;;;6.35;;
18100;SDS011;9177;49.156;8.142;2023-09-12T09:18:57;10.18;;;6.47;;
18100;SDS011;9177;49.156;8.142;2023-09-12T09:21:26;9.48;;;6.60;;
18100;SDS011;9177;49.156;8.142;2023-09-12T09:23:55;10.82;;;6.72;;
18100;SDS011;9177;49.156;8.142;2023-09-12T09:26:25;13.68;;;7.15;;
18100;SDS011;9177;49.156;8.142;2023-09-12T09:34:02;14.30;;;7.28;;
18100;SDS011;9177;49.156;8.142;2023-09-12T09:36:36;9.73;;;6.80;;
18100;SDS011;9177;49.156;8.142;2023-09-12T09:39:03;11.57;;;7.25;;
18100;SDS011;9177;49.156;8.142;2023-09-12T09:41:32;8.80;;;7.35;;
18100;SDS011;9177;49.156;8.142;2023-09-12T09:43:59;10.35;;;7.35;;
18100;SDS011;9177;49.156;8.142;2023-09-12T09:46:26;10.27;;;7.38;;
18100;SDS011;9177;49.156;8.142;2023-09-12T09:48:53;10.73;;;7.70;;
18100;SDS011;9177;49.156;8.142;2023-09-12T09:51:20;9.05;;;6.82;;
18100;SDS011;9177;49.156;8.142;2023-09-12T09:53:48;14.60;;;13.15;;
18100;SDS011;9177;49.156;8.142;2023-09-12T09:56:17;12.20;;;11.00;;
18100;SDS011;9177;49.156;8.142;2023-09-12T09:58:49;14.40;;;10.68;;
18100;SDS011;9177;49.156;8.142;2023-09-12T10:01:18;10.48;;;8.63;;
18100;SDS011;9177;49.156;8.142;2023-09-12T10:03:46;10.20;;;9.13;;
18100;SDS011;9177;49.156;8.142;2023-09-12T10:06:14;10.35;;;8.60;;
18100;SDS011;9177;49.156;8.142;2023-09-12T10:08:43;10.05;;;8.90;;
18100;SDS011;9177;49.156;8.142;2023-09-12T10:11:10;12.73;;;9.07;;
18100;SDS011;9177;49.156;8.142;2023-09-12T10:13:39;11.30;;;8.93;;
18100;SDS011;9177;49.156;8.142;2023-09-12T10:16:13;9.90;;;8.88;;
18100;SDS011;9177;49.156;8.142;2023-09-12T10:18:46;10.82;;;8.85;;
18100;SDS011;9177;49.156;8.142;2023-09-12T10:21:21;11.40;;;9.10;;
18100;SDS011;9177;49.156;8.142;2023-09-12T10:23:53;9.77;;;8.68;;
18100;SDS011;9177;49.156;8.142;2023-09-12T10:26:22;9.77;;;8.75;;
18100;SDS011;9177;49.156;8.142;2023-09-12T10:28:50;9.48;;;8.48;;
18100;SDS011;9177;49.156;8.142;2023-09-12T10:31:19;10.40;;;9.00;;
18100;SDS011;9177;49.156;8.142;2023-09-12T10:33:46;11.73;;;8.95;;
18100;SDS011;9177;49.156;8.142;2023-09-12T10:36:15;11.73;;;8.90;;
18100;SDS011;9177;49.156;8.142;2023-09-12T10:38:44;9.38;;;8.50;;
18100;SDS011;9177;49.156;8.142;2023-09-12T10:41:14;11.70;;;8.50;;
18100;SDS011;9177;49.156;8.142;2023-09-12T10:43:42;11.90;;;8.40;;
18100;SDS011;9177;49.156;8.142;2023-09-12T10:46:12;11.32;;;8.30;;
18100;SDS011;9177;49.156;8.142;2023-09-12T10:48:41;12.15;;;8.07;;
18100;SDS011;9177;49.156;8.142;2023-09-12T10:51:09;9.00;;;8.07;;
18100;SDS011;9177;49.156;8.142;2023-09-12T10:53:37;9.20;;;7.82;;
18100;SDS011;9177;49.156;8.142;2023-09-12T10:56:14;8.75;;;7.63;;
18100;SDS011;9177;49.156;8.142;2023-09-12T11:01:38;12.65;;;8.25;;
18100;SDS011;9177;49.156;8.142;2023-09-12T11:06:59;10.32;;;7.63;;
18100;SDS011;9177;49.156;8.142;2023-09-12T11:09:27;8.32;;;7.53;;
18100;SDS011;9177;49.156;8.142;2023-09-12T11:11:55;8.30;;;7.50;;
18100;SDS011;9177;49.156;8.142;2023-09-12T11:14:24;12.20;;;6.95;;
18100;SDS011;9177;49.156;8.142;2023-09-12T11:19:51;9.48;;;7.25;;
18100;SDS011;9177;49.156;8.142;2023-09-12T11:22:22;8.05;;;7.25;;
18100;SDS011;9177;49.156;8.142;2023-09-12T11:24:50;8.55;;;7.18;;
18100;SDS011;9177;49.156;8.142;2023-09-12T11:27:17;8.02;;;7.22;;
18100;SDS011;9177;49.156;8.142;2023-09-12T11:29:44;8.35;;;7.55;;
18100;SDS011;9177;49.156;8.142;2023-09-12T11:32:24;7.95;;;7.15;;
18100;SDS011;9177;49.156;8.142;2023-09-12T11:34:54;7.60;;;6.90;;
18100;SDS011;9177;49.156;8.142;2023-09-12T11:37:24;7.88;;;7.20;;
18100;SDS011;9177;49.156;8.142;2023-09-12T11:39:53;7.10;;;6.50;;
18100;SDS011;9177;49.156;8.142;2023-09-12T11:42:22;9.15;;;7.10;;
18100;SDS011;9177;49.156;8.142;2023-09-12T11:44:50;8.30;;;6.95;;
18100;SDS011;9177;49.156;8.142;2023-09-12T11:47:18;7.28;;;6.63;;
18100;SDS011;9177;49.156;8.142;2023-09-12T11:49:46;7.93;;;6.50;;
18100;SDS011;9177;49.156;8.142;2023-09-12T11:52:14;7.97;;;6.75;;
18100;SDS011;9177;49.156;8.142;2023-09-12T11:54:43;7.57;;;6.70;;
18100;SDS011;9177;49.156;8.142;2023-09-12T11:57:11;7.47;;;6.75;;
18100;SDS011;9177;49.156;8.142;2023-09-12T11:59:40;8.00;;;7.10;;
18100;SDS011;9177;49.156;8.142;2023-09-12T12:02:10;7.70;;;7.10;;
18100;SDS011;9177;49.156;8.142;2023-09-12T12:04:37;8.73;;;7.30;;
18100;SDS011;9177;49.156;8.142;2023-09-12T12:07:05;7.28;;;6.03;;
18100;SDS011;9177;49.156;8.142;2023-09-12T12:09:34;7.70;;;7.00;;
18100;SDS011;9177;49.156;8.142;2023-09-12T12:12:09;7.22;;;6.25;;
18100;SDS011;9177;49.156;8.142;2023-09-12T12:14:38;7.53;;;6.43;;
18100;SDS011;9177;49.156;8.142;2023-09-12T12:17:06;7.60;;;6.90;;
18100;SDS011;9177;49.156;8.142;2023-09-12T12:19:34;7.53;;;6.90;;
18100;SDS011;9177;49.156;8.142;2023-09-12T12:22:05;8.95;;;6.60;;
18100;SDS011;9177;49.156;8.142;2023-09-12T12:24:37;7.88;;;6.28;;
18100;SDS011;9177;49.156;8.142;2023-09-12T12:27:05;7.15;;;6.47;;
18100;SDS011;9177;49.156;8.142;2023-09-12T12:29:33;7.40;;;6.40;;
18100;SDS011;9177;49.156;8.142;2023-09-12T12:32:00;7.60;;;6.88;;
18100;SDS011;9177;49.156;8.142;2023-09-12T12:34:27;6.95;;;6.00;;
18100;SDS011;9177;49.156;8.142;2023-09-12T12:36:55;7.53;;;6.50;;
18100;SDS011;9177;49.156;8.142;2023-09-12T12:39:22;6.45;;;5.95;;
18100;SDS011;9177;49.156;8.142;2023-09-12T12:41:52;7.93;;;7.15;;
18100;SDS011;9177;49.156;8.142;2023-09-12T12:44:20;8.27;;;6.43;;
18100;SDS011;9177;49.156;8.142;2023-09-12T12:46:50;7.05;;;6.15;;
18100;SDS011;9177;49.156;8.142;2023-09-12T12:49:18;7.80;;;6.00;;
18100;SDS011;9177;49.156;8.142;2023-09-12T12:51:45;9.23;;;6.50;;
18100;SDS011;9177;49.156;8.142;2023-09-12T12:54:13;8.50;;;6.40;;
18100;SDS011;9177;49.156;8.142;2023-09-12T12:56:41;10.48;;;6.45;;
18100;SDS011;9177;49.156;8.142;2023-09-12T12:59:11;11.10;;;6.43;;
18100;SDS011;9177;49.156;8.142;2023-09-12T13:01:38;11.23;;;6.00;;
18100;SDS011;9177;49.156;8.142;2023-09-12T13:04:05;8.27;;;6.40;;
18100;SDS011;9177;49.156;8.142;2023-09-12T13:06:33;10.95;;;6.07;;
18100;SDS011;9177;49.156;8.142;2023-09-12T13:09:02;9.10;;;6.28;;
18100;SDS011;9177;49.156;8.142;2023-09-12T13:11:30;6.03;;;5.43;;
18100;SDS011;9177;49.156;8.142;2023-09-12T13:13:58;7.13;;;6.35;;
18100;SDS011;9177;49.156;8.142;2023-09-12T13:16:26;6.07;;;5.47;;
18100;SDS011;9177;49.156;8.142;2023-09-12T13:18:54;8.20;;;5.70;;
18100;SDS011;9177;49.156;8.142;2023-09-12T13:21:21;7.35;;;5.97;;
18100;SDS011;9177;49.156;8.142;2023-09-12T13:23:48;6.43;;;5.93;;
18100;SDS011;9177;49.156;8.142;2023-09-12T13:26:15;6.65;;;5.95;;
18100;SDS011;9177;49.156;8.142;2023-09-12T13:28:41;9.15;;;5.93;;
18100;SDS011;9177;49.156;8.142;2023-09-12T13:31:08;6.80;;;6.10;;
18100;SDS011;9177;49.156;8.142;2023-09-12T13:33:38;6.43;;;5.82;;
18100;SDS011;9177;49.156;8.142;2023-09-12T13:36:05;5.97;;;5.47;;
18100;SDS011;9177;49.156;8.142;2023-09-12T13:38:32;5.88;;;5.38;;
18100;SDS011;9177;49.156;8.142;2023-09-12T13:40:59;6.15;;;5.55;;
18100;SDS011;9177;49.156;8.142;2023-09-12T13:43:26;6.30;;;5.75;;
18100;SDS011;9177;49.156;8.142;2023-09-12T13:45:53;5.75;;;5.25;;
18100;SDS011;9177;49.156;8.142;2023-09-12T13:48:20;7.30;;;5.90;;
18100;SDS011;9177;49.156;8.142;2023-09-12T13:50:48;6.40;;;5.70;;
18100;SDS011;9177;49.156;8.142;2023-09-12T13:53:15;7.35;;;5.60;;
18100;SDS011;9177;49.156;8.142;2023-09-12T13:55:42;5.70;;;5.15;;
18100;SDS011;9177;49.156;8.142;2023-09-12T13:58:12;8.50;;;5.50;;
18100;SDS011;9177;49.156;8.142;2023-09-12T14:00:38;5.90;;;5.28;;
18100;SDS011;9177;49.156;8.142;2023-09-12T14:03:05;6.72;;;6.13;;
18100;SDS011;9177;49.156;8.142;2023-09-12T14:05:32;6.40;;;5.80;;
18100;SDS011;9177;49.156;8.142;2023-09-12T14:08:00;5.70;;;5.30;;
18100;SDS011;9177;49.156;8.142;2023-09-12T14:10:27;6.03;;;5.53;;
18100;SDS011;9177;49.156;8.142;2023-09-12T14:12:54;7.35;;;5.28;;
18100;SDS011;9177;49.156;8.142;2023-09-12T14:15:21;6.28;;;5.68;;
18100;SDS011;9177;49.156;8.142;2023-09-12T14:17:51;5.80;;;5.30;;
18100;SDS011;9177;49.156;8.142;2023-09-12T14:20:18;7.15;;;5.40;;
18100;SDS011;9177;49.156;8.142;2023-09-12T14:22:45;5.50;;;5.00;;
18100;SDS011;9177;49.156;8.142;2023-09-12T14:25:13;5.50;;;4.97;;
18100;SDS011;9177;49.156;8.142;2023-09-12T14:27:41;7.70;;;5.30;;
18100;SDS011;9177;49.156;8.142;2023-09-12T14:30:09;5.47;;;4.93;;
18100;SDS011;9177;49.156;8.142;2023-09-12T14:32:37;5.80;;;5.30;;
18100;SDS011;9177;49.156;8.142;2023-09-12T14:35:04;6.15;;;5.55;;
18100;SDS011;9177;49.156;8.142;2023-09-12T14:37:32;9.25;;;5.55;;
18100;SDS011;9177;49.156;8.142;2023-09-12T14:40:00;7.95;;;5.55;;
18100;SDS011;9177;49.156;8.142;2023-09-12T14:42:31;5.43;;;5.03;;
18100;SDS011;9177;49.156;8.142;2023-09-12T14:44:57;5.60;;;5.20;;
18100;SDS011;9177;49.156;8.142;2023-09-12T14:47:25;5.82;;;5.25;;
18100;SDS011;9177;49.156;8.142;2023-09-12T14:49:52;5.68;;;5.20;;
18100;SDS011;9177;49.156;8.142;2023-09-12T14:52:19;5.35;;;4.95;;
18100;SDS011;9177;49.156;8.142;2023-09-12T14:54:47;5.88;;;5.32;;
18100;SDS011;9177;49.156;8.142;2023-09-12T14:57:14;5.53;;;5.13;;
18100;SDS011;9177;49.156;8.142;2023-09-12T14:59:42;7.65;;;5.40;;
18100;SDS011;9177;49.156;8.142;2023-09-12T15:02:09;5.60;;;5.20;;
18100;SDS011;9177;49.156;8.142;2023-09-12T15:04:36;6.28;;;5.63;;
18100;SDS011;9177;49.156;8.142;2023-09-12T15:07:03;5.70;;;5.20;;
18100;SDS011;9177;49.156;8.142;2023-09-12T15:09:30;5.35;;;4.85;;
18100;SDS011;9177;49.156;8.142;2023-09-12T15:11:57;5.32;;;4.82;;
18100;SDS011;9177;49.156;8.142;2023-09-12T15:14:23;5.60;;;5.05;;
18100;SDS011;9177;49.156;8.142;2023-09-12T15:16:52;6.13;;;5.35;;
18100;SDS011;9177;49.156;8.142;2023-09-12T15:19:19;7.07;;;5.10;;
18100;SDS011;9177;49.156;8.142;2023-09-12T15:21:47;5.57;;;5.13;;
18100;SDS011;9177;49.156;8.142;2023-09-12T15:24:14;5.70;;;5.22;;
18100;SDS011;9177;49.156;8.142;2023-09-12T15:26:40;6.93;;;5.53;;